Time;durP1;ratioP1;P1;durP2;ratioP2;P2;SDS_P1;SDS_P2;PMS_P1;PMS_P2;Temp;Humidity;BMP_temperature;BMP_pressure;BME280_temperature;BME280_humidity;BME280_pressure;Samples;Min_cycle;Max_cycle;Signal;HPM_P1;HPM_P2
2022/10/31 00:01:25;;;;;;;16.95;8.70;;;;;;;15.63;100.00;101945.88;6098517;23;20023;-49
2022/10/31 00:03:53;;;;;;;17.88;9.05;;;;;;;15.61;100.00;101939.84;6098297;23;20026;-53
2022/10/31 00:06:21;;;;;;;16.38;8.50;;;;;;;15.59;100.00;101944.78;6098349;23;20018;-51
2022/10/31 00:08:53;;;;;;;15.82;8.85;;;;;;;15.55;100.00;101941.75;6100527;23;20023;-50
2022/10/31 00:11:22;;;;;;;16.00;8.77;;;;;;;15.51;100.00;101950.81;6097795;23;20022;-51
2022/10/31 00:13:49;;;;;;;15.77;8.02;;;;;;;15.48;100.00;101945.88;6096196;23;20025;-50
2022/10/31 00:16:22;;;;;;;16.83;8.60;;;;;;;15.47;100.00;101955.22;6096167;23;20037;-50
2022/10/31 00:18:51;;;;;;;16.38;8.85;;;;;;;15.42;100.00;101955.22;6096527;23;20026;-49
2022/10/31 00:21:19;;;;;;;15.85;7.68;;;;;;;15.38;100.00;101951.34;6097544;23;20018;-53
2022/10/31 00:23:46;;;;;;;17.30;8.75;;;;;;;15.34;100.00;101962.03;6097224;23;20023;-51
2022/10/31 00:26:14;;;;;;;15.98;7.93;;;;;;;15.30;100.00;101958.22;6095571;23;20073;-48
2022/10/31 00:28:42;;;;;;;16.63;8.18;;;;;;;15.28;100.00;101953.00;6097042;23;20085;-50
2022/10/31 00:31:11;;;;;;;16.50;8.55;;;;;;;15.26;100.00;101952.44;6096199;23;20022;-51
2022/10/31 00:33:40;;;;;;;14.77;8.52;;;;;;;15.25;100.00;101958.19;6096094;23;20478;-50
2022/10/31 00:36:10;;;;;;;14.48;8.13;;;;;;;15.23;100.00;101952.97;6073028;23;20456;-51
2022/10/31 00:38:39;;;;;;;16.90;8.80;;;;;;;15.20;100.00;101953.53;6095091;23;20018;-50
2022/10/31 00:41:07;;;;;;;15.40;8.77;;;;;;;15.19;100.00;101954.63;6096111;23;20018;-52
2022/10/31 00:43:35;;;;;;;17.05;8.43;;;;;;;15.14;100.00;101951.84;6072340;23;20093;-52
2022/10/31 00:46:03;;;;;;;17.08;8.60;;;;;;;15.09;100.00;101943.63;6095391;23;20502;-49
2022/10/31 00:48:31;;;;;;;19.02;8.30;;;;;;;15.05;100.00;101943.31;6096886;23;20022;-50
2022/10/31 00:50:59;;;;;;;14.23;8.15;;;;;;;15.08;100.00;101944.69;6072070;23;20021;-52
2022/10/31 00:53:27;;;;;;;16.55;8.20;;;;;;;15.07;100.00;101940.31;6095840;23;20032;-50
2022/10/31 00:55:54;;;;;;;20.55;8.95;;;;;;;15.07;100.00;101940.31;6095158;23;20396;-51
2022/10/31 00:58:23;;;;;;;19.95;8.25;;;;;;;15.06;100.00;101941.41;6072239;23;20026;-53
2022/10/31 01:00:54;;;;;;;17.00;8.68;;;;;;;15.06;100.00;101944.97;6095235;23;20014;-51
2022/10/31 01:03:24;;;;;;;15.55;8.70;;;;;;;15.06;100.00;101950.47;6095273;23;20023;-53
2022/10/31 01:06:08;;;;;;;13.35;8.55;;;;;;;15.05;100.00;101945.25;6072060;23;20014;-54
2022/10/31 01:08:36;;;;;;;19.67;8.32;;;;;;;15.02;100.00;101949.34;6072397;23;20342;-54
2022/10/31 01:11:15;;;;;;;15.38;8.43;;;;;;;15.02;100.00;101954.03;6095507;23;20018;-51
2022/10/31 01:13:44;;;;;;;14.70;8.70;;;;;;;14.98;100.00;101942.75;6096985;23;20423;-49
2022/10/31 01:16:15;;;;;;;14.82;8.68;;;;;;;14.97;100.00;101951.28;6096911;23;20018;-52
2022/10/31 01:18:42;;;;;;;16.00;8.45;;;;;;;14.93;100.00;101947.41;6097154;23;20081;-51
2022/10/31 01:21:19;;;;;;;15.95;9.23;;;;;;;14.90;100.00;101949.59;6095088;23;20436;-51
2022/10/31 01:23:49;;;;;;;16.08;8.10;;;;;;;14.90;100.00;101935.06;6096676;23;20105;-51
2022/10/31 01:26:16;;;;;;;14.55;8.05;;;;;;;14.91;100.00;101925.72;6094917;23;20029;-51
2022/10/31 01:28:51;;;;;;;17.73;8.68;;;;;;;14.90;100.00;101927.63;6095354;23;20018;-49
2022/10/31 01:31:22;;;;;;;15.45;8.60;;;;;;;14.90;100.00;101927.63;6046904;23;20022;-51
2022/10/31 01:33:50;;;;;;;15.25;9.02;;;;;;;14.91;100.00;101914.72;6095110;23;20022;-50
2022/10/31 01:36:21;;;;;;;15.85;8.60;;;;;;;14.91;100.00;101917.47;6072048;23;20010;-50
2022/10/31 01:38:52;;;;;;;15.55;9.05;;;;;;;14.91;100.00;101920.22;6095167;23;20033;-50
2022/10/31 01:41:22;;;;;;;15.45;8.45;;;;;;;14.91;100.00;101921.06;6047621;23;20026;-50
2022/10/31 01:43:59;;;;;;;14.40;7.85;;;;;;;14.94;100.00;101924.38;6095301;23;20018;-50
2022/10/31 01:46:38;;;;;;;18.00;8.48;;;;;;;14.96;100.00;101916.66;6095604;23;20026;-53
2022/10/31 01:49:21;;;;;;;16.58;8.40;;;;;;;14.96;100.00;101923.00;6095578;23;20085;-48
2022/10/31 01:52:21;;;;;;;17.10;8.73;;;;;;;14.94;100.00;101932.59;6047761;23;20037;-52
2022/10/31 01:54:52;;;;;;;13.45;7.88;;;;;;;14.95;100.00;101937.00;6077189;23;20456;-50
2022/10/31 01:57:21;;;;;;;15.13;8.15;;;;;;;14.91;100.00;101932.06;6070794;23;20455;-52
2022/10/31 01:59:55;;;;;;;14.00;8.13;;;;;;;14.93;100.00;101937.25;6071807;23;20053;-47
2022/10/31 02:02:25;;;;;;;17.52;9.38;;;;;;;14.95;100.00;101939.72;6097524;23;20032;-51
2022/10/31 02:04:53;;;;;;;14.88;8.98;;;;;;;14.94;100.00;101940.84;6094790;23;20482;-48
2022/10/31 02:07:29;;;;;;;16.38;8.48;;;;;;;14.93;100.00;101933.69;6095248;23;20014;-50
2022/10/31 02:10:00;;;;;;;17.42;9.10;;;;;;;14.89;100.00;101926.00;6072138;23;20027;-48
2022/10/31 02:12:29;;;;;;;14.52;8.50;;;;;;;14.85;100.00;101930.38;6095089;23;20033;-47
2022/10/31 02:15:00;;;;;;;13.35;8.43;;;;;;;14.81;100.00;101929.25;6093998;23;20027;-47
2022/10/31 02:17:30;;;;;;;17.73;9.10;;;;;;;14.76;100.00;101923.75;6071004;23;20539;-48
2022/10/31 02:20:17;;;;;;;19.58;9.52;;;;;;;14.73;100.00;101924.28;6095476;23;20343;-51
2022/10/31 02:23:03;;;;;;;15.05;8.98;;;;;;;14.74;100.00;101923.19;6071446;23;20029;-50
2022/10/31 02:25:55;;;;;;;17.52;9.50;;;;;;;14.75;100.00;101922.13;6094864;23;20022;-52
2022/10/31 02:28:49;;;;;;;17.40;9.05;;;;;;;14.72;100.00;101917.19;6095085;23;20078;-49
2022/10/31 02:32:00;;;;;;;16.33;9.00;;;;;;;14.68;100.00;101921.53;6095181;23;20019;-52
2022/10/31 02:34:45;;;;;;;15.32;8.63;;;;;;;14.66;100.00;101919.06;6089446;23;20072;-50
2022/10/31 02:37:25;;;;;;;16.67;8.80;;;;;;;14.63;100.00;101919.59;6094800;23;20452;-49
2022/10/31 02:40:08;;;;;;;17.17;8.80;;;;;;;14.61;100.00;101915.47;6094990;23;20026;-50
2022/10/31 02:43:23;;;;;;;13.88;8.43;;;;;;;14.60;100.00;101913.81;6097656;23;20018;-51
2022/10/31 02:45:58;;;;;;;19.10;9.82;;;;;;;14.58;100.00;101910.53;6096268;23;20084;-50
2022/10/31 02:48:34;;;;;;;14.45;8.93;;;;;;;14.58;100.00;101910.53;6074025;23;20021;-51
2022/10/31 02:51:03;;;;;;;14.85;9.30;;;;;;;14.55;100.00;101911.91;6073713;23;20025;-51
2022/10/31 02:53:35;;;;;;;18.90;9.65;;;;;;;14.52;100.00;101923.34;6096877;23;20018;-53
2022/10/31 02:56:13;;;;;;;14.38;9.13;;;;;;;14.45;100.00;101918.09;6072628;23;20026;-50
2022/10/31 02:58:55;;;;;;;19.25;9.70;;;;;;;14.35;100.00;101923.53;6097099;23;20022;-51
2022/10/31 03:01:30;;;;;;;18.02;9.32;;;;;;;14.23;100.00;101917.44;6096871;23;20355;-48
2022/10/31 03:04:16;;;;;;;17.58;9.23;;;;;;;14.22;100.00;101918.56;6072488;23;20014;-51
2022/10/31 03:06:56;;;;;;;16.10;8.85;;;;;;;14.23;100.00;101915.53;6072663;23;20082;-50
2022/10/31 03:09:41;;;;;;;13.23;8.55;;;;;;;14.27;100.00;101927.63;6073493;23;20033;-50
2022/10/31 03:12:18;;;;;;;20.15;9.02;;;;;;;14.29;100.00;101924.63;6096548;23;20022;-51
2022/10/31 03:15:00;;;;;;;17.38;8.90;;;;;;;14.31;100.00;101921.59;6072626;23;20026;-50
2022/10/31 03:17:42;;;;;;;14.65;8.77;;;;;;;14.32;100.00;101917.78;6096878;23;20042;-51
2022/10/31 03:20:11;;;;;;;14.75;9.13;;;;;;;14.30;100.00;101919.97;6096961;23;20028;-50
2022/10/31 03:22:40;;;;;;;13.63;8.65;;;;;;;14.28;100.00;101920.22;6097912;23;20015;-49
2022/10/31 03:25:08;;;;;;;14.27;9.15;;;;;;;14.27;100.00;101924.06;6072010;23;20030;-50
2022/10/31 03:27:37;;;;;;;17.02;9.18;;;;;;;14.26;100.00;101922.41;6072901;23;20029;-49
2022/10/31 03:30:07;;;;;;;17.75;9.32;;;;;;;14.26;100.00;101919.66;6049158;23;20034;-50
2022/10/31 03:32:52;;;;;;;16.35;8.63;;;;;;;14.23;100.00;101922.94;6076575;23;20030;-52
2022/10/31 03:35:24;;;;;;;18.95;9.00;;;;;;;14.22;100.00;101921.28;6095865;23;20032;-52
2022/10/31 03:37:53;;;;;;;15.13;9.40;;;;;;;14.22;100.00;101921.28;6071989;23;20014;-50
2022/10/31 03:40:22;;;;;;;15.85;8.82;;;;;;;14.12;100.00;101916.59;6048960;23;20522;-51
2022/10/31 03:42:59;;;;;;;15.35;8.85;;;;;;;14.04;100.00;101919.81;6073114;23;20022;-50
2022/10/31 03:45:30;;;;;;;14.35;8.38;;;;;;;13.97;100.00;101928.25;6072749;23;20090;-55
2022/10/31 03:47:59;;;;;;;15.43;8.60;;;;;;;13.90;100.00;101915.88;6096458;23;20023;-53
2022/10/31 03:50:44;;;;;;;13.45;8.75;;;;;;;13.87;100.00;101916.41;6096180;23;20466;-55
2022/10/31 03:53:25;;;;;;;15.52;8.75;;;;;;;13.83;100.00;101927.06;6072230;23;20022;-50
2022/10/31 03:56:28;;;;;;;17.58;9.35;;;;;;;13.77;100.00;101925.38;6095400;23;20522;-53
2022/10/31 03:59:19;;;;;;;14.75;8.80;;;;;;;13.75;100.00;101924.81;6072228;23;20387;-51
2022/10/31 04:01:50;;;;;;;15.63;9.00;;;;;;;13.75;100.00;101930.28;6085480;23;20467;-52
2022/10/31 04:04:19;;;;;;;16.33;8.30;;;;;;;13.73;100.00;101926.97;6094685;23;20075;-51
2022/10/31 04:06:50;;;;;;;15.73;8.65;;;;;;;13.72;100.00;101922.59;6071096;23;20416;-50
2022/10/31 04:09:19;;;;;;;15.35;8.93;;;;;;;13.72;100.00;101920.69;6095046;23;20455;-49
2022/10/31 04:11:50;;;;;;;13.50;8.07;;;;;;;13.73;100.00;101914.09;6049707;23;20025;-52
2022/10/31 04:14:48;;;;;;;15.02;8.27;;;;;;;13.79;100.00;101924.03;6078370;23;20029;-51
2022/10/31 04:17:18;;;;;;;14.70;8.38;;;;;;;13.80;100.00;101927.59;6097126;23;20042;-48
2022/10/31 04:19:46;;;;;;;14.15;8.35;;;;;;;13.80;100.00;101927.59;6047666;23;20026;-48
2022/10/31 04:22:14;;;;;;;17.90;8.38;;;;;;;13.80;100.00;101933.06;6094613;23;20020;-48
2022/10/31 04:24:42;;;;;;;15.55;7.95;;;;;;;13.78;100.00;101933.34;6094444;23;20018;-49
2022/10/31 04:27:14;;;;;;;14.77;8.68;;;;;;;13.76;100.00;101923.75;6071287;23;20077;-50
2022/10/31 04:29:41;;;;;;;16.42;8.20;;;;;;;13.75;100.00;101924.81;6095761;23;20022;-47
2022/10/31 04:32:14;;;;;;;14.88;8.35;;;;;;;13.72;100.00;101923.41;6094682;23;20033;-49
2022/10/31 04:34:42;;;;;;;15.20;8.15;;;;;;;13.67;100.00;101920.66;6094188;23;20031;-51
2022/10/31 04:37:10;;;;;;;12.23;8.05;;;;;;;13.64;100.00;101921.19;6093507;23;20359;-50
2022/10/31 04:39:38;;;;;;;16.20;8.30;;;;;;;13.60;100.00;101912.66;6095425;23;20462;-51
2022/10/31 04:42:25;;;;;;;16.50;8.95;;;;;;;13.57;100.00;101913.19;6097731;23;20069;-50
2022/10/31 04:44:52;;;;;;;16.58;9.05;;;;;;;13.55;100.00;101915.34;6095477;23;20320;-53
2022/10/31 04:47:20;;;;;;;15.27;8.30;;;;;;;13.56;100.00;101925.19;6068438;23;20450;-52
2022/10/31 04:49:47;;;;;;;14.55;8.93;;;;;;;13.58;100.00;101925.78;6093711;23;20014;-54
2022/10/31 04:52:15;;;;;;;13.32;8.05;;;;;;;13.57;100.00;101921.38;6097336;23;20093;-54
2022/10/31 04:54:43;;;;;;;15.68;8.30;;;;;;;13.47;100.00;101918.56;6097997;23;20022;-50
2022/10/31 04:57:43;;;;;;;15.40;8.35;;;;;;;13.36;100.00;101920.38;6097789;23;20026;-53
2022/10/31 05:00:12;;;;;;;16.05;8.18;;;;;;;13.36;100.00;101916.81;6072240;23;20357;-51
2022/10/31 05:02:47;;;;;;;13.55;8.73;;;;;;;13.40;100.00;101917.97;6096860;23;20018;-52
2022/10/31 05:05:16;;;;;;;14.07;7.95;;;;;;;13.42;100.00;101913.88;6073494;23;20018;-51
2022/10/31 05:07:45;;;;;;;13.80;8.02;;;;;;;13.43;100.00;101907.31;6096885;23;20022;-51
2022/10/31 05:10:16;;;;;;;16.33;8.43;;;;;;;13.39;100.00;101908.06;6072421;23;20030;-50
2022/10/31 05:12:54;;;;;;;14.25;7.90;;;;;;;13.32;100.00;101911.03;6098448;23;20022;-50
2022/10/31 05:15:42;;;;;;;14.68;8.05;;;;;;;13.29;100.00;101905.25;6101460;23;20057;-49
2022/10/31 05:18:09;;;;;;;16.63;8.57;;;;;;;13.26;100.00;101903.03;6102830;23;20449;-50
2022/10/31 05:20:55;;;;;;;17.50;8.55;;;;;;;13.24;100.00;101899.72;6103184;23;20463;-48
2022/10/31 05:23:35;;;;;;;16.48;8.07;;;;;;;13.26;100.00;101897.53;6099360;23;20018;-49
2022/10/31 05:26:04;;;;;;;14.35;8.70;;;;;;;13.26;100.00;101895.63;6096675;23;20030;-50
2022/10/31 05:28:33;;;;;;;17.83;8.27;;;;;;;13.22;100.00;101903.50;6072464;23;20026;-51
2022/10/31 05:31:02;;;;;;;13.45;8.27;;;;;;;13.21;100.00;101899.13;6095499;23;20042;-50
2022/10/31 05:33:31;;;;;;;15.50;8.20;;;;;;;13.23;100.00;101898.88;6072458;23;20021;-49
2022/10/31 05:36:10;;;;;;;16.42;8.23;;;;;;;13.20;100.00;101892.03;6096044;23;20077;-48
2022/10/31 05:38:44;;;;;;;17.15;8.07;;;;;;;13.19;100.00;101901.31;6094683;23;20038;-50
2022/10/31 05:41:20;;;;;;;;;;;;;;;13.19;100.00;101895.00;6095715;23;20093;-48
2022/10/31 05:43:48;;;;;;;17.67;8.50;;;;;;;13.17;100.00;101902.66;6095377;23;19945;-47
2022/10/31 05:46:19;;;;;;;17.70;8.70;;;;;;;13.13;100.00;101896.88;6095881;23;20052;-49
2022/10/31 05:49:09;;;;;;;15.38;8.70;;;;;;;13.16;100.00;101888.16;6096402;23;20050;-51
2022/10/31 05:51:55;;;;;;;;;;;;;;;13.24;100.00;101886.03;6097846;23;20391;-51
2022/10/31 05:54:32;;;;;;;16.73;9.00;;;;;;;13.25;100.00;101887.66;6096105;23;19924;-51
2022/10/31 05:56:59;;;;;;;15.48;8.95;;;;;;;13.20;100.00;101886.56;6095391;23;20019;-50
2022/10/31 05:59:27;;;;;;;16.45;8.93;;;;;;;13.13;100.00;101885.09;6095129;23;20042;-52
2022/10/31 06:01:55;;;;;;;16.30;9.00;;;;;;;13.06;100.00;101884.47;6096267;23;20030;-50
2022/10/31 06:04:46;;;;;;;17.88;9.50;;;;;;;12.95;100.00;101884.38;6096739;23;20407;-52
2022/10/31 06:07:13;;;;;;;17.30;9.60;;;;;;;12.93;100.00;101888.44;6070989;23;20070;-48
2022/10/31 06:09:41;;;;;;;18.38;9.75;;;;;;;12.93;100.00;101889.28;6096270;23;20049;-48
2022/10/31 06:12:09;;;;;;;16.13;9.45;;;;;;;12.94;100.00;101880.00;6095046;23;20018;-48
2022/10/31 06:14:56;;;;;;;17.85;10.32;;;;;;;12.92;100.00;101882.16;6096578;23;20026;-47
2022/10/31 06:17:23;;;;;;;19.77;10.00;;;;;;;12.92;100.00;101889.56;6094712;23;20026;-48
2022/10/31 06:20:11;;;;;;;17.10;10.23;;;;;;;12.94;100.00;101881.88;6099297;23;20049;-53
2022/10/31 06:22:51;;;;;;;19.65;10.13;;;;;;;12.93;100.00;101885.72;6097093;23;20090;-51
2022/10/31 06:25:18;;;;;;;22.10;10.23;;;;;;;12.92;100.00;101889.56;6096008;23;20487;-48
2022/10/31 06:27:49;;;;;;;19.75;10.73;;;;;;;12.92;100.00;101878.59;6072998;23;20105;-50
2022/10/31 06:30:22;;;;;;;16.65;9.45;;;;;;;12.86;100.00;101876.88;6096527;23;20026;-49
2022/10/31 06:32:50;;;;;;;19.27;10.05;;;;;;;12.78;100.00;101879.00;6095481;23;20019;-48
2022/10/31 06:35:19;;;;;;;15.57;9.40;;;;;;;12.74;100.00;101883.31;6092723;23;20026;-49
2022/10/31 06:37:54;;;;;;;16.73;8.85;;;;;;;12.73;100.00;101878.94;6092921;23;20026;-51
2022/10/31 06:40:30;;;;;;;18.13;10.18;;;;;;;12.76;100.00;101874.88;6092593;23;20473;-46
2022/10/31 06:43:11;;;;;;;20.90;9.65;;;;;;;12.77;100.00;101882.84;6092465;23;20093;-48
2022/10/31 06:45:40;;;;;;;18.85;9.40;;;;;;;12.81;100.00;101887.78;6092435;23;20336;-49
2022/10/31 06:48:32;;;;;;;17.67;9.43;;;;;;;12.83;100.00;101885.63;6093002;23;20292;-49
2022/10/31 06:51:18;;;;;;;19.67;11.32;;;;;;;12.86;100.00;101890.56;6093274;23;20026;-49
2022/10/31 06:53:46;;;;;;;16.55;9.80;;;;;;;12.88;100.00;101893.88;6092461;23;20022;-48
2022/10/31 06:56:16;;;;;;;20.38;10.60;;;;;;;12.92;100.00;101889.56;6093660;23;20026;-49
2022/10/31 06:58:48;;;;;;;20.33;10.35;;;;;;;12.96;100.00;101891.50;6093099;23;20396;-48
2022/10/31 07:01:20;;;;;;;22.45;11.20;;;;;;;12.95;100.00;101895.31;6092536;23;20030;-50
2022/10/31 07:03:49;;;;;;;22.40;11.43;;;;;;;12.90;100.00;101886.25;6092432;23;20113;-49
2022/10/31 07:06:16;;;;;;;20.30;11.02;;;;;;;12.85;100.00;101888.94;6092699;23;20085;-49
2022/10/31 07:08:44;;;;;;;16.85;10.65;;;;;;;12.83;100.00;101885.63;6045242;23;20023;-47
2022/10/31 07:11:12;;;;;;;20.33;10.25;;;;;;;12.82;100.00;101889.41;6093799;23;20074;-49
2022/10/31 07:13:40;;;;;;;18.73;10.82;;;;;;;12.82;100.00;101886.69;6092354;23;20073;-46
2022/10/31 07:16:08;;;;;;;21.60;10.73;;;;;;;12.82;100.00;101892.16;6093947;23;20057;-47
2022/10/31 07:18:36;;;;;;;18.25;11.10;;;;;;;12.81;100.00;101883.13;6092346;23;20026;-50
2022/10/31 07:21:04;;;;;;;23.50;11.75;;;;;;;12.79;100.00;101890.75;6092138;23;20026;-50
2022/10/31 07:23:32;;;;;;;21.40;11.48;;;;;;;12.76;100.00;101891.28;6092240;23;20026;-52
2022/10/31 07:26:29;;;;;;;23.95;12.90;;;;;;;12.76;100.00;101888.53;6040693;23;20119;-51
2022/10/31 07:28:58;;;;;;;24.52;13.55;;;;;;;12.75;100.00;101890.47;6092862;23;20363;-50
2022/10/31 07:31:28;;;;;;;22.83;12.18;;;;;;;12.78;100.00;101891.84;6095296;23;20073;-50
2022/10/31 07:34:00;;;;;;;22.23;12.18;;;;;;;12.84;100.00;101890.81;6094592;23;20029;-50
2022/10/31 07:36:28;;;;;;;21.27;12.68;;;;;;;12.91;100.00;101893.34;6092740;23;20026;-52
2022/10/31 07:39:02;;;;;;;20.65;12.32;;;;;;;12.96;100.00;101890.66;6067908;23;20033;-50
2022/10/31 07:41:31;;;;;;;20.50;12.45;;;;;;;12.99;100.00;101901.13;6092207;23;20026;-50
2022/10/31 07:43:59;;;;;;;25.17;12.65;;;;;;;13.00;100.00;101897.28;6092546;23;20049;-50
2022/10/31 07:46:29;;;;;;;16.83;11.73;;;;;;;12.99;100.00;101901.94;6070698;23;20019;-48
2022/10/31 07:49:35;;;;;;;20.58;12.18;;;;;;;13.02;100.00;101903.31;6093138;23;20030;-46
2022/10/31 07:52:22;;;;;;;21.40;12.25;;;;;;;13.07;100.00;101908.84;6092610;23;20408;-50
2022/10/31 07:55:09;;;;;;;25.75;13.75;;;;;;;13.10;100.00;101913.78;6094377;23;20023;-52
2022/10/31 07:57:37;;;;;;;27.15;14.70;;;;;;;13.14;100.00;101909.47;6068363;23;20073;-54
2022/10/31 08:00:07;;;;;;;22.85;14.13;;;;;;;13.18;100.00;101905.13;6092786;23;20105;-51
2022/10/31 08:02:41;;;;;;;24.45;13.57;;;;;;;13.22;100.00;101900.78;6094421;23;20026;-54
2022/10/31 08:05:41;;;;;;;23.67;12.27;;;;;;;13.28;100.00;101901.69;6093716;23;20034;-54
2022/10/31 08:08:34;;;;;;;23.55;13.27;;;;;;;13.31;100.00;101903.91;6073444;23;20022;-53
2022/10/31 08:11:06;;;;;;;20.70;11.80;;;;;;;13.32;100.00;101904.72;6094103;23;20482;-53
2022/10/31 08:13:34;;;;;;;23.63;12.07;;;;;;;13.35;100.00;101899.56;6092924;23;20574;-53
2022/10/31 08:16:04;;;;;;;24.83;13.02;;;;;;;13.38;100.00;101906.44;6092533;23;20511;-56
2022/10/31 08:18:37;;;;;;;19.15;11.77;;;;;;;13.39;100.00;101905.34;6092746;23;20060;-52
2022/10/31 08:21:06;;;;;;;27.27;13.75;;;;;;;13.43;100.00;101901.00;6095174;23;20146;-51
2022/10/31 08:23:35;;;;;;;27.35;13.68;;;;;;;13.46;100.00;101900.47;6093874;23;20022;-49
2022/10/31 08:26:05;;;;;;;23.80;12.05;;;;;;;13.48;100.00;101903.78;6095120;23;20047;-50
2022/10/31 08:28:33;;;;;;;21.25;11.90;;;;;;;13.52;100.00;101899.44;6093382;23;20022;-48
2022/10/31 08:31:01;;;;;;;23.65;13.30;;;;;;;13.57;100.00;101904.97;6091955;23;20026;-50
2022/10/31 08:33:40;;;;;;;20.92;12.40;;;;;;;13.62;100.00;101896.78;6093468;23;20022;-51
2022/10/31 08:36:28;;;;;;;20.80;12.60;;;;;;;13.67;100.00;101898.75;6093888;23;20105;-49
2022/10/31 08:39:15;;;;;;;27.25;14.25;;;;;;;13.74;100.00;101890.31;6090940;23;20033;-46
2022/10/31 08:41:43;;;;;;;24.52;13.38;;;;;;;13.76;100.00;101874.44;6091743;23;20611;-50
2022/10/31 08:44:13;;;;;;;21.42;12.32;;;;;;;13.78;100.00;101870.34;6092228;23;20022;-52
2022/10/31 08:46:40;;;;;;;23.00;12.55;;;;;;;13.80;100.00;101868.13;6093556;23;20049;-51
2022/10/31 08:49:08;;;;;;;18.02;12.20;;;;;;;13.83;100.00;101878.59;6091949;23;20101;-49
2022/10/31 08:51:36;;;;;;;19.02;12.00;;;;;;;13.86;100.00;101885.44;6091580;23;20025;-49
2022/10/31 08:54:04;;;;;;;18.00;10.77;;;;;;;13.90;100.00;101883.81;6091047;23;20033;-53
2022/10/31 08:56:55;;;;;;;21.63;10.68;;;;;;;13.92;100.00;101881.63;6091263;23;20026;-53
2022/10/31 08:59:38;;;;;;;16.65;10.20;;;;;;;13.94;100.00;101867.69;6091655;23;20138;-51
2022/10/31 09:02:24;;;;;;;21.08;11.18;;;;;;;13.95;100.00;101853.72;6071201;23;20027;-55
2022/10/31 09:04:57;;;;;;;23.83;11.82;;;;;;;13.93;100.00;101820.28;6092267;23;20105;-49
2022/10/31 09:07:25;;;;;;;22.73;13.00;;;;;;;13.92;100.00;101821.38;6091659;23;20081;-49
2022/10/31 09:09:55;;;;;;;17.90;11.77;;;;;;;13.92;100.00;101826.03;6091490;23;20024;-53
2022/10/31 09:12:24;;;;;;;24.42;12.18;;;;;;;13.92;100.00;101832.31;6091306;23;20498;-48
2022/10/31 09:15:10;;;;;;;19.45;12.40;;;;;;;13.93;100.00;101838.66;6093172;23;20515;-51
2022/10/31 09:17:48;;;;;;;20.10;12.20;;;;;;;13.95;100.00;101834.56;6093398;23;20033;-50
2022/10/31 09:20:39;;;;;;;23.20;12.93;;;;;;;13.98;100.00;101841.41;6091461;23;20522;-47
2022/10/31 09:23:14;;;;;;;25.50;13.63;;;;;;;13.99;100.00;101843.88;6067408;23;20481;-48
2022/10/31 09:25:43;;;;;;;22.98;15.00;;;;;;;13.99;100.00;101838.38;6091587;23;20030;-47
2022/10/31 09:28:49;;;;;;;24.15;15.00;;;;;;;14.03;100.00;101839.50;6042527;23;20022;-48
2022/10/31 09:31:20;;;;;;;24.65;13.70;;;;;;;14.05;100.00;101859.25;6068479;23;20023;-51
2022/10/31 09:33:48;;;;;;;27.00;14.77;;;;;;;14.07;100.00;101870.78;6092180;23;20030;-50
2022/10/31 09:36:34;;;;;;;24.58;16.13;;;;;;;14.11;100.00;101856.53;6093027;23;20101;-47
2022/10/31 09:39:03;;;;;;;30.75;16.67;;;;;;;14.12;100.00;101839.00;6091004;23;20023;-49
2022/10/31 09:41:54;;;;;;;29.02;15.85;;;;;;;14.14;100.00;101828.59;6091683;23;20026;-51
2022/10/31 09:44:41;;;;;;;24.58;14.48;;;;;;;14.16;100.00;101824.50;6091430;23;20515;-50
2022/10/31 09:47:38;;;;;;;24.80;14.70;;;;;;;14.20;100.00;101824.78;6091729;23;20408;-51
2022/10/31 09:50:35;;;;;;;23.02;15.63;;;;;;;14.23;100.00;101813.28;6051089;23;20026;-50
2022/10/31 09:53:30;;;;;;;25.80;15.77;;;;;;;14.23;100.00;101797.66;6072018;23;20081;-50
2022/10/31 09:55:59;;;;;;;31.02;16.40;;;;;;;14.25;100.00;101791.91;6093522;23;20035;-52
2022/10/31 09:58:29;;;;;;;26.83;16.00;;;;;;;14.26;100.00;101788.91;6093995;23;20023;-50
2022/10/31 10:01:02;;;;;;;32.78;18.85;;;;;;;14.29;100.00;101793.03;6093108;23;20089;-49
2022/10/31 10:03:34;;;;;;;31.38;18.63;;;;;;;14.32;100.00;101797.16;6069782;23;20023;-50
2022/10/31 10:06:21;;;;;;;30.15;18.25;;;;;;;14.34;100.00;101797.72;6093525;23;20522;-49
2022/10/31 10:09:25;;;;;;;30.63;16.60;;;;;;;14.33;100.00;101787.81;6045756;23;20078;-50
2022/10/31 10:12:15;;;;;;;28.23;16.80;;;;;;;14.34;100.00;101790.31;6093422;23;20045;-50
2022/10/31 10:15:05;;;;;;;29.25;18.17;;;;;;;14.33;100.00;101793.31;6094751;23;20019;-47
2022/10/31 10:18:02;;;;;;;27.85;15.80;;;;;;;14.36;100.00;101792.75;6093409;23;20032;-50
2022/10/31 10:20:50;;;;;;;28.48;17.60;;;;;;;14.38;100.00;101788.69;6094658;23;20018;-50
2022/10/31 10:23:18;;;;;;;33.50;18.77;;;;;;;14.39;100.00;101782.09;6093347;23;20018;-53
2022/10/31 10:25:49;;;;;;;30.85;17.38;;;;;;;14.41;100.00;101768.13;6094532;23;20026;-52
2022/10/31 10:28:38;;;;;;;36.50;17.02;;;;;;;14.42;100.00;101762.34;6093456;23;20026;-49
2022/10/31 10:31:12;;;;;;;30.27;20.00;;;;;;;14.46;100.00;101760.72;6095304;23;20206;-52
2022/10/31 10:33:58;;;;;;;32.47;20.75;;;;;;;14.51;100.00;101745.38;6095501;23;20018;-52
2022/10/31 10:36:38;;;;;;;34.90;21.00;;;;;;;14.55;100.00;101746.50;6094496;23;20498;-50
2022/10/31 10:39:45;;;;;;;34.78;20.63;;;;;;;14.59;100.00;101748.44;6092931;23;20078;-50
2022/10/31 10:48:16;;;;;;;32.55;20.52;;;;;;;14.65;100.00;101725.41;6094732;23;20042;-48
2022/10/31 10:50:49;;;;;;;34.17;21.88;;;;;;;14.67;100.00;101727.84;6094386;23;20136;-50
2022/10/31 10:53:35;;;;;;;49.40;24.38;;;;;;;14.70;100.00;101732.81;6069781;23;20030;-50
2022/10/31 10:56:13;;;;;;;37.13;20.88;;;;;;;14.76;100.00;101728.97;6094317;23;20030;-51
2022/10/31 10:58:42;;;;;;;35.75;22.05;;;;;;;14.78;100.00;101726.78;6094617;23;20029;-50
2022/10/31 11:01:12;;;;;;;38.47;21.58;;;;;;;14.80;100.00;101727.31;6092925;23;20052;-53
2022/10/31 11:03:40;;;;;;;36.95;22.23;;;;;;;14.83;100.00;101726.78;6093193;23;20023;-51
2022/10/31 11:06:25;;;;;;;36.95;21.48;;;;;;;14.83;100.00;101725.94;6092899;23;20318;-50
2022/10/31 11:08:53;;;;;;;37.30;22.95;;;;;;;14.83;100.00;101721.28;6092791;23;20030;-49
2022/10/31 11:11:31;;;;;;;31.48;20.60;;;;;;;14.85;100.00;101710.03;6094667;23;20400;-51
2022/10/31 11:14:05;;;;;;;39.78;22.88;;;;;;;14.89;100.00;101713.91;6092652;23;20029;-52
2022/10/31 11:16:34;;;;;;;34.67;22.17;;;;;;;14.90;100.00;101705.38;6092940;23;20022;-48
2022/10/31 11:19:09;;;;;;;35.95;20.52;;;;;;;14.94;100.00;101691.13;6092364;23;20515;-50
2022/10/31 11:21:36;;;;;;;40.63;21.35;;;;;;;14.98;100.00;101700.41;6068437;23;20105;-51
2022/10/31 11:24:13;;;;;;;35.13;21.60;;;;;;;14.98;100.00;101709.47;6094120;23;20030;-50
2022/10/31 11:26:42;;;;;;;28.42;18.27;;;;;;;14.99;100.00;101702.91;6094223;23;20033;-50
2022/10/31 11:29:30;;;;;;;32.67;20.38;;;;;;;15.02;100.00;101698.78;6092368;23;20073;-49
2022/10/31 11:32:00;;;;;;;35.63;20.73;;;;;;;15.04;100.00;101688.34;6092330;23;20455;-50
2022/10/31 11:34:29;;;;;;;31.42;18.70;;;;;;;15.06;100.00;101686.97;6068629;23;20022;-52
2022/10/31 11:37:22;;;;;;;35.35;20.42;;;;;;;15.08;100.00;101681.19;6093476;23;20411;-48
2022/10/31 11:40:15;;;;;;;41.17;22.08;;;;;;;15.09;100.00;101674.63;6093216;23;20026;-51
2022/10/31 11:42:43;;;;;;;29.77;19.30;;;;;;;15.10;100.00;101655.13;6082623;23;20029;-51
2022/10/31 11:45:24;;;;;;;33.38;18.65;;;;;;;15.12;100.00;101641.13;6091924;23;20022;-50
2022/10/31 11:47:54;;;;;;;34.80;20.75;;;;;;;15.15;100.00;101634.25;6093751;23;20458;-48
2022/10/31 11:50:37;;;;;;;29.40;19.20;;;;;;;15.18;100.00;101630.97;6092443;23;20026;-50